Time;durP1;ratioP1;P1;durP2;ratioP2;P2;SDS_P1;SDS_P2;PMS_P1;PMS_P2;Temp;Humidity;BMP_temperature;BMP_pressure;BME280_temperature;BME280_humidity;BME280_pressure;Samples;Min_cycle;Max_cycle;Signal;HPM_P1;HPM_P2
2023/10/31 00:02:16;;;;;;;;;;;13.40;99.90;;;;;;5118054;27;20003;-88
2023/10/31 00:04:43;;;;;;;;;;;13.40;99.90;;;;;;5117990;27;19982;-87
2023/10/31 00:07:11;;;;;;;;;;;13.40;99.90;;;;;;5115592;27;20020;-88
2023/10/31 00:09:39;;;;;;;;;;;13.40;99.90;;;;;;5110107;27;19979;-86
2023/10/31 00:12:05;;;;;;;;;;;13.40;99.90;;;;;;5115911;27;20638;-88
2023/10/31 00:14:32;;;;;;;;;;;13.30;99.90;;;;;;5117022;27;19987;-87
2023/10/31 00:16:59;;;;;;;;;;;13.30;99.90;;;;;;5111161;27;20629;-88
2023/10/31 00:19:25;;;;;;;;;;;13.30;99.90;;;;;;5117982;27;20020;-88
2023/10/31 00:21:52;;;;;;;;;;;13.30;99.90;;;;;;5111804;27;19998;-87
2023/10/31 00:24:20;;;;;;;;;;;13.30;99.90;;;;;;5114315;27;20024;-88
2023/10/31 00:26:47;;;;;;;;;;;13.30;99.90;;;;;;5109906;27;20066;-87
2023/10/31 00:29:14;;;;;;;;;;;13.30;99.90;;;;;;5117707;27;20594;-87
2023/10/31 00:31:41;;;;;;;;;;;13.30;99.90;;;;;;5113612;27;19986;-88
2023/10/31 00:34:07;;;;;;;;;;;13.20;99.90;;;;;;5103529;28;20399;-86
2023/10/31 00:36:34;;;;;;;;;;;13.20;99.90;;;;;;5119825;27;19987;-86
2023/10/31 00:39:01;;;;;;;;;;;13.20;99.90;;;;;;5119725;27;19986;-86
2023/10/31 00:41:29;;;;;;;;;;;13.20;99.90;;;;;;5122777;27;19978;-86
2023/10/31 00:43:55;;;;;;;;;;;13.20;99.90;;;;;;5114863;27;19985;-85
2023/10/31 00:46:22;;;;;;;;;;;13.10;99.90;;;;;;5103229;28;20098;-84
2023/10/31 00:48:49;;;;;;;;;;;13.10;99.90;;;;;;5123634;27;20660;-85
2023/10/31 00:51:15;;;;;;;;;;;13.10;99.90;;;;;;5118968;27;19974;-85
2023/10/31 00:53:42;;;;;;;;;;;13.10;99.90;;;;;;5109287;27;20036;-87
2023/10/31 00:56:09;;;;;;;;;;;13.10;99.90;;;;;;5114205;27;20487;-84
2023/10/31 00:58:37;;;;;;;;;;;13.10;99.90;;;;;;5113831;27;19986;-85
2023/10/31 01:01:04;;;;;;;;;;;13.10;99.90;;;;;;5113768;27;20035;-86
2023/10/31 01:03:30;;;;;;;;;;;13.10;99.90;;;;;;5111448;28;19994;-85
2023/10/31 01:05:57;;;;;;;;;;;13.10;99.90;;;;;;5113377;27;20425;-86
2023/10/31 01:08:24;;;;;;;;;;;13.10;99.90;;;;;;5113308;27;19986;-86
2023/10/31 01:10:50;;;;;;;;;;;13.00;99.90;;;;;;5113280;27;20439;-86
2023/10/31 01:13:17;;;;;;;;;;;13.00;99.90;;;;;;5137582;27;19990;-86
2023/10/31 01:15:45;;;;;;;;;;;13.10;99.90;;;;;;5120278;27;20039;-85
2023/10/31 01:18:12;;;;;;;;;;;13.00;99.90;;;;;;5121387;27;19974;-86
2023/10/31 01:20:39;;;;;;;;;;;13.00;99.90;;;;;;5117953;27;19991;-87
2023/10/31 01:23:05;;;;;;;;;;;12.90;99.90;;;;;;5122107;27;20427;-86
2023/10/31 01:25:32;;;;;;;;;;;12.90;99.90;;;;;;5126686;27;20002;-86
2023/10/31 01:27:59;;;;;;;;;;;12.90;99.90;;;;;;5116838;27;20032;-87
2023/10/31 01:30:26;;;;;;;;;;;12.90;99.90;;;;;;5122149;27;19999;-86
2023/10/31 01:32:54;;;;;;;;;;;12.90;99.90;;;;;;5124355;27;19999;-86
2023/10/31 01:35:21;;;;;;;;;;;12.80;99.90;;;;;;5096368;27;20091;-85
2023/10/31 01:37:47;;;;;;;;;;;12.80;99.90;;;;;;5115908;27;20069;-88
2023/10/31 01:40:15;;;;;;;;;;;12.80;99.90;;;;;;5117391;27;20025;-85
2023/10/31 01:42:42;;;;;;;;;;;12.80;99.90;;;;;;5114738;27;20521;-85
2023/10/31 01:45:09;;;;;;;;;;;12.80;99.90;;;;;;5110651;27;20009;-86
2023/10/31 01:47:36;;;;;;;;;;;12.70;99.90;;;;;;5120740;27;19979;-84
2023/10/31 01:50:07;;;;;;;;;;;12.70;99.90;;;;;;5114210;27;19982;-86
2023/10/31 01:52:35;;;;;;;;;;;12.70;99.90;;;;;;5118019;27;19994;-86
2023/10/31 01:55:02;;;;;;;;;;;12.70;99.90;;;;;;5117719;27;19990;-84
2023/10/31 01:57:29;;;;;;;;;;;12.60;99.90;;;;;;5113201;27;19979;-85
2023/10/31 01:59:56;;;;;;;;;;;12.70;99.90;;;;;;5120852;27;19975;-84
2023/10/31 02:02:23;;;;;;;;;;;12.70;99.90;;;;;;5113718;27;20459;-85
2023/10/31 02:04:50;;;;;;;;;;;12.70;99.90;;;;;;5114399;27;20093;-85
2023/10/31 02:07:18;;;;;;;;;;;12.60;99.90;;;;;;5114313;27;20474;-83
2023/10/31 02:09:45;;;;;;;;;;;12.60;99.90;;;;;;5112581;27;20061;-84
2023/10/31 02:12:12;;;;;;;;;;;12.60;99.90;;;;;;5118390;27;19994;-85
2023/10/31 02:14:38;;;;;;;;;;;12.60;99.90;;;;;;5117621;27;19982;-86
2023/10/31 02:17:05;;;;;;;;;;;12.60;99.90;;;;;;5115481;27;20002;-85
2023/10/31 02:19:32;;;;;;;;;;;12.60;99.90;;;;;;5119597;27;19974;-84
2023/10/31 02:22:00;;;;;;;;;;;12.50;99.90;;;;;;5116203;27;20530;-85
2023/10/31 02:24:27;;;;;;;;;;;12.50;99.90;;;;;;5117809;27;20391;-84
2023/10/31 02:30:21;;;;;;;;;;;12.50;99.90;;;;;;5114649;27;20156;-85
2023/10/31 02:32:47;;;;;;;;;;;12.50;99.90;;;;;;5113279;27;20047;-84
2023/10/31 02:35:15;;;;;;;;;;;12.50;99.90;;;;;;5116781;27;20782;-84
2023/10/31 02:37:43;;;;;;;;;;;12.40;99.90;;;;;;5119249;27;19975;-84
2023/10/31 02:40:10;;;;;;;;;;;12.30;99.90;;;;;;5119002;27;20110;-85
2023/10/31 02:42:37;;;;;;;;;;;12.40;99.90;;;;;;5118467;27;20044;-83
2023/10/31 02:45:04;;;;;;;;;;;12.40;99.90;;;;;;5113922;27;19986;-85
2023/10/31 02:47:31;;;;;;;;;;;12.40;99.90;;;;;;5113916;27;20478;-83
2023/10/31 02:49:57;;;;;;;;;;;12.40;99.90;;;;;;5120362;27;20610;-84
2023/10/31 02:52:24;;;;;;;;;;;12.30;99.90;;;;;;5114447;27;20017;-84
2023/10/31 02:54:52;;;;;;;;;;;12.30;99.90;;;;;;5118037;27;19986;-83
2023/10/31 02:57:18;;;;;;;;;;;12.30;99.90;;;;;;5115614;27;19986;-84
2023/10/31 02:59:46;;;;;;;;;;;12.30;99.90;;;;;;5116757;27;19982;-84
2023/10/31 03:02:12;;;;;;;;;;;12.30;99.90;;;;;;5094356;27;20951;-83
2023/10/31 03:04:39;;;;;;;;;;;12.30;99.90;;;;;;5107633;27;19978;-84
2023/10/31 03:07:06;;;;;;;;;;;12.30;99.90;;;;;;5116060;27;19990;-84
2023/10/31 03:09:32;;;;;;;;;;;12.20;99.90;;;;;;5113191;27;19974;-84
2023/10/31 03:12:00;;;;;;;;;;;12.20;99.90;;;;;;5110046;27;20002;-83
2023/10/31 03:14:28;;;;;;;;;;;12.20;99.90;;;;;;5116863;27;19974;-84
2023/10/31 03:16:54;;;;;;;;;;;12.10;99.90;;;;;;5111019;27;20037;-86
2023/10/31 03:19:21;;;;;;;;;;;12.20;99.90;;;;;;5118261;27;20073;-84
2023/10/31 03:21:47;;;;;;;;;;;12.20;99.90;;;;;;5108747;27;20097;-85
2023/10/31 03:24:14;;;;;;;;;;;12.10;99.90;;;;;;5110901;27;19982;-85
2023/10/31 03:26:41;;;;;;;;;;;12.10;99.90;;;;;;5112609;27;19974;-84
2023/10/31 03:29:09;;;;;;;;;;;12.10;99.90;;;;;;5114004;27;19978;-84
2023/10/31 03:31:36;;;;;;;;;;;12.20;99.90;;;;;;5108188;27;20002;-85
2023/10/31 03:34:02;;;;;;;;;;;12.10;99.90;;;;;;5110789;27;20482;-84
2023/10/31 03:36:30;;;;;;;;;;;12.10;99.90;;;;;;5110352;27;20652;-83
2023/10/31 03:38:57;;;;;;;;;;;12.00;99.90;;;;;;5110382;27;19991;-82
2023/10/31 03:41:24;;;;;;;;;;;12.10;99.90;;;;;;5111306;27;20526;-83
2023/10/31 03:43:50;;;;;;;;;;;12.10;99.90;;;;;;5108934;27;20001;-84
2023/10/31 03:46:18;;;;;;;;;;;12.00;99.90;;;;;;5108763;27;19990;-86
2023/10/31 03:48:45;;;;;;;;;;;12.00;99.90;;;;;;5110578;27;20351;-84
2023/10/31 03:51:11;;;;;;;;;;;12.00;99.90;;;;;;5110774;27;19986;-84
2023/10/31 03:53:38;;;;;;;;;;;12.00;99.90;;;;;;5107528;27;21118;-82
2023/10/31 03:56:05;;;;;;;;;;;12.00;99.90;;;;;;5109225;27;20089;-82
2023/10/31 03:58:32;;;;;;;;;;;12.00;99.90;;;;;;5110459;27;19982;-84
2023/10/31 04:00:58;;;;;;;;;;;12.00;99.90;;;;;;5108732;27;20599;-84
2023/10/31 04:03:26;;;;;;;;;;;12.00;99.90;;;;;;5108281;27;20001;-85
2023/10/31 04:05:53;;;;;;;;;;;12.00;99.90;;;;;;5104114;27;20297;-84
2023/10/31 04:08:19;;;;;;;;;;;12.00;99.90;;;;;;5100284;27;19986;-85
2023/10/31 04:10:46;;;;;;;;;;;11.90;99.90;;;;;;5103395;27;19985;-82
2023/10/31 04:13:13;;;;;;;;;;;11.90;99.90;;;;;;5103827;27;20005;-84
2023/10/31 04:15:39;;;;;;;;;;;11.90;99.90;;;;;;5103148;27;19998;-83
2023/10/31 04:18:06;;;;;;;;;;;11.90;99.90;;;;;;5100823;27;20260;-85
2023/10/31 04:20:34;;;;;;;;;;;11.90;99.90;;;;;;5100509;27;20097;-83
2023/10/31 04:23:01;;;;;;;;;;;11.90;99.90;;;;;;5103456;27;19979;-85
2023/10/31 04:25:29;;;;;;;;;;;11.90;99.90;;;;;;5100964;27;19985;-84
2023/10/31 04:27:55;;;;;;;;;;;11.90;99.90;;;;;;5102463;27;19985;-83
2023/10/31 04:30:22;;;;;;;;;;;11.90;99.90;;;;;;5099081;27;19974;-83
2023/10/31 04:32:49;;;;;;;;;;;11.90;99.90;;;;;;5108769;27;20081;-83
2023/10/31 04:35:15;;;;;;;;;;;11.90;99.90;;;;;;5111299;27;20450;-81
2023/10/31 04:37:43;;;;;;;;;;;11.90;99.90;;;;;;5108790;27;20079;-84
2023/10/31 04:40:11;;;;;;;;;;;11.90;99.90;;;;;;5114108;27;19985;-84
2023/10/31 04:42:38;;;;;;;;;;;11.90;99.90;;;;;;5114437;27;20077;-84
2023/10/31 04:45:05;;;;;;;;;;;11.80;99.90;;;;;;5113341;27;20465;-84
2023/10/31 04:47:32;;;;;;;;;;;11.80;99.90;;;;;;5116475;27;19990;-84
2023/10/31 04:49:58;;;;;;;;;;;11.90;99.90;;;;;;5116300;27;19987;-83
2023/10/31 04:52:25;;;;;;;;;;;11.80;99.90;;;;;;5113414;27;19997;-84
2023/10/31 04:54:54;;;;;;;;;;;11.90;99.90;;;;;;5120683;27;19986;-85
2023/10/31 04:57:20;;;;;;;;;;;11.80;99.90;;;;;;5114665;27;20435;-85
2023/10/31 04:59:47;;;;;;;;;;;11.80;99.90;;;;;;5120386;27;20072;-86
2023/10/31 05:02:14;;;;;;;;;;;11.80;99.90;;;;;;5114571;27;20292;-83
2023/10/31 05:04:40;;;;;;;;;;;11.80;99.90;;;;;;5118031;27;20472;-85
2023/10/31 05:07:08;;;;;;;;;;;11.80;99.90;;;;;;5118420;27;19997;-85
2023/10/31 05:09:35;;;;;;;;;;;11.80;99.90;;;;;;5117278;27;20493;-84
2023/10/31 05:12:03;;;;;;;;;;;11.80;99.90;;;;;;5114653;27;20398;-85
2023/10/31 05:14:30;;;;;;;;;;;11.80;99.90;;;;;;5118090;27;19975;-85
2023/10/31 05:16:56;;;;;;;;;;;11.80;99.90;;;;;;5117090;27;19998;-85
2023/10/31 05:19:23;;;;;;;;;;;11.80;99.90;;;;;;5114442;27;20651;-85
2023/10/31 05:21:49;;;;;;;;;;;11.80;99.90;;;;;;5118600;27;19995;-84
2023/10/31 05:24:16;;;;;;;;;;;11.80;99.90;;;;;;5114389;27;19981;-83
2023/10/31 05:26:43;;;;;;;;;;;11.80;99.90;;;;;;5115588;27;19979;-85
2023/10/31 05:29:11;;;;;;;;;;;11.80;99.90;;;;;;5118044;27;20447;-83
2023/10/31 05:31:38;;;;;;;;;;;11.80;99.90;;;;;;5114428;27;19999;-83
2023/10/31 05:34:05;;;;;;;;;;;11.80;99.90;;;;;;5117679;27;19978;-85
2023/10/31 05:36:32;;;;;;;;;;;11.70;99.90;;;;;;5116994;27;20483;-85
2023/10/31 05:38:58;;;;;;;;;;;11.70;99.90;;;;;;5117659;27;19978;-84
2023/10/31 05:41:25;;;;;;;;;;;11.70;99.90;;;;;;5115600;27;19982;-85
2023/10/31 05:43:51;;;;;;;;;;;11.80;99.90;;;;;;5118173;27;20001;-84
2023/10/31 05:46:19;;;;;;;;;;;11.80;99.90;;;;;;5110324;27;19994;-85
2023/10/31 05:48:47;;;;;;;;;;;11.60;99.90;;;;;;5113695;27;19981;-84
2023/10/31 05:51:14;;;;;;;;;;;11.70;99.90;;;;;;5114295;27;19978;-84
2023/10/31 05:53:41;;;;;;;;;;;11.70;99.90;;;;;;5122000;27;20093;-85
2023/10/31 05:56:08;;;;;;;;;;;11.80;99.90;;;;;;5116098;27;20120;-84
2023/10/31 05:58:35;;;;;;;;;;;11.70;99.90;;;;;;5124188;27;20350;-83
2023/10/31 06:01:02;;;;;;;;;;;11.70;99.90;;;;;;5116937;27;20001;-84
2023/10/31 06:03:30;;;;;;;;;;;11.70;99.90;;;;;;5111727;27;19999;-84
2023/10/31 06:05:56;;;;;;;;;;;11.70;99.90;;;;;;5122901;27;19991;-84
2023/10/31 06:08:27;;;;;;;;;;;11.60;99.90;;;;;;5121758;27;20073;-83
2023/10/31 06:10:54;;;;;;;;;;;11.60;99.90;;;;;;5121515;27;19979;-84
2023/10/31 06:13:20;;;;;;;;;;;11.70;99.90;;;;;;5121853;27;20399;-83
2023/10/31 06:15:47;;;;;;;;;;;11.60;99.90;;;;;;5114217;27;20540;-84
2023/10/31 06:18:14;;;;;;;;;;;11.70;99.90;;;;;;5116899;27;19994;-83
2023/10/31 06:20:42;;;;;;;;;;;11.60;99.90;;;;;;5116024;27;20380;-84
2023/10/31 06:23:08;;;;;;;;;;;11.60;99.90;;;;;;5119355;27;20385;-84
2023/10/31 06:25:35;;;;;;;;;;;11.70;99.90;;;;;;5114898;27;20065;-83
2023/10/31 06:28:02;;;;;;;;;;;11.60;99.90;;;;;;5116917;27;20258;-85
2023/10/31 06:30:28;;;;;;;;;;;11.60;99.90;;;;;;5121578;27;20006;-86
2023/10/31 06:32:55;;;;;;;;;;;11.60;99.90;;;;;;5114888;27;20005;-81
2023/10/31 06:35:24;;;;;;;;;;;11.60;99.90;;;;;;5116684;27;20435;-84
2023/10/31 06:37:52;;;;;;;;;;;11.60;99.90;;;;;;5115476;27;20527;-81
2023/10/31 06:40:19;;;;;;;;;;;11.60;99.90;;;;;;5116838;27;20478;-84
2023/10/31 06:42:45;;;;;;;;;;;11.60;99.90;;;;;;5116630;27;20009;-86
2023/10/31 06:45:12;;;;;;;;;;;11.60;99.90;;;;;;5115537;27;19989;-83
2023/10/31 06:47:39;;;;;;;;;;;11.50;99.90;;;;;;5115550;27;19979;-80
2023/10/31 06:50:06;;;;;;;;;;;11.60;99.90;;;;;;5122318;27;19982;-82
2023/10/31 06:52:32;;;;;;;;;;;11.60;99.90;;;;;;5118053;27;20084;-85
2023/10/31 06:55:01;;;;;;;;;;;11.60;99.90;;;;;;5121211;27;19986;-84
2023/10/31 06:57:27;;;;;;;;;;;11.60;99.90;;;;;;5118557;27;20001;-82
2023/10/31 06:59:54;;;;;;;;;;;11.60;99.90;;;;;;5118293;27;19993;-82
2023/10/31 07:02:21;;;;;;;;;;;11.60;99.90;;;;;;5117522;27;19994;-81
2023/10/31 07:04:47;;;;;;;;;;;11.50;99.90;;;;;;5112247;27;20097;-81
2023/10/31 07:07:14;;;;;;;;;;;11.50;99.90;;;;;;5113066;27;19980;-80
2023/10/31 07:09:40;;;;;;;;;;;11.50;99.90;;;;;;5114725;27;20017;-81
2023/10/31 07:12:09;;;;;;;;;;;11.50;99.90;;;;;;5114448;27;20067;-82
2023/10/31 07:14:35;;;;;;;;;;;11.50;99.90;;;;;;5117477;27;19978;-82
2023/10/31 07:17:02;;;;;;;;;;;11.50;99.90;;;;;;5112144;27;20045;-81
2023/10/31 07:19:28;;;;;;;;;;;11.50;99.90;;;;;;5116703;27;20008;-81
2023/10/31 07:21:55;;;;;;;;;;;11.60;99.90;;;;;;5116882;27;20225;-81
2023/10/31 07:24:21;;;;;;;;;;;11.50;99.90;;;;;;5116750;27;19974;-80
2023/10/31 07:26:48;;;;;;;;;;;11.50;99.90;;;;;;5118171;27;19981;-79
2023/10/31 07:29:16;;;;;;;;;;;11.50;99.90;;;;;;5118705;27;20358;-81
2023/10/31 07:31:43;;;;;;;;;;;11.60;99.90;;;;;;5119134;27;19998;-79
2023/10/31 07:34:11;;;;;;;;;;;11.50;99.90;;;;;;5113487;27;19978;-80
2023/10/31 07:36:39;;;;;;;;;;;11.50;99.90;;;;;;5116508;27;20044;-79
2023/10/31 07:39:05;;;;;;;;;;;11.60;99.90;;;;;;5114167;27;19987;-80
2023/10/31 07:41:32;;;;;;;;;;;11.50;99.90;;;;;;5115550;27;20458;-81
2023/10/31 07:43:59;;;;;;;;;;;11.50;99.90;;;;;;5117220;27;19982;-79
2023/10/31 07:46:27;;;;;;;;;;;11.50;99.90;;;;;;5115521;27;19991;-80
2023/10/31 07:48:53;;;;;;;;;;;11.50;99.90;;;;;;5117796;27;20486;-81
2023/10/31 07:51:20;;;;;;;;;;;11.50;99.90;;;;;;5115633;27;20538;-79
2023/10/31 07:53:47;;;;;;;;;;;11.60;99.90;;;;;;5115532;27;20362;-80
2023/10/31 07:56:16;;;;;;;;;;;11.50;99.90;;;;;;5118828;27;20022;-80
2023/10/31 07:58:43;;;;;;;;;;;11.50;99.90;;;;;;5113174;27;20079;-81
2023/10/31 08:01:10;;;;;;;;;;;11.50;99.90;;;;;;5110989;27;20085;-81
2023/10/31 08:03:38;;;;;;;;;;;11.60;99.90;;;;;;5110988;27;20002;-80
2023/10/31 08:06:06;;;;;;;;;;;11.60;99.90;;;;;;5113814;27;20013;-80
2023/10/31 08:08:32;;;;;;;;;;;11.50;99.90;;;;;;5113811;27;19974;-81
2023/10/31 08:10:59;;;;;;;;;;;11.50;99.90;;;;;;5118783;27;20382;-79
2023/10/31 08:13:26;;;;;;;;;;;11.60;99.90;;;;;;5113815;27;20001;-79
2023/10/31 08:15:52;;;;;;;;;;;11.60;99.90;;;;;;5111323;27;20042;-79
2023/10/31 08:18:20;;;;;;;;;;;11.60;99.90;;;;;;5114725;27;19994;-81
2023/10/31 08:20:49;;;;;;;;;;;11.60;99.90;;;;;;5118213;27;19978;-78
2023/10/31 08:23:16;;;;;;;;;;;11.60;99.90;;;;;;5122087;27;20033;-80
2023/10/31 08:25:42;;;;;;;;;;;11.60;99.90;;;;;;5127009;27;19974;-78
2023/10/31 08:28:09;;;;;;;;;;;11.60;99.90;;;;;;5125312;27;19978;-79
2023/10/31 08:30:36;;;;;;;;;;;11.60;99.90;;;;;;5124480;27;20001;-80
2023/10/31 08:33:02;;;;;;;;;;;11.60;99.90;;;;;;5123042;27;20025;-80
2023/10/31 08:35:29;;;;;;;;;;;11.60;99.90;;;;;;5124823;27;20235;-79
2023/10/31 08:37:57;;;;;;;;;;;11.60;99.90;;;;;;5125813;27;20473;-80
2023/10/31 08:40:24;;;;;;;;;;;11.60;99.90;;;;;;5127928;27;19975;-80
2023/10/31 08:42:50;;;;;;;;;;;11.60;99.90;;;;;;5121909;27;20604;-80
2023/10/31 08:45:17;;;;;;;;;;;11.60;99.90;;;;;;5123929;27;19985;-80
2023/10/31 08:47:44;;;;;;;;;;;11.60;99.90;;;;;;5126587;27;19979;-80
2023/10/31 08:50:11;;;;;;;;;;;11.70;99.90;;;;;;5120014;27;20077;-79
2023/10/31 08:52:37;;;;;;;;;;;11.70;99.90;;;;;;5130371;27;20051;-78
2023/10/31 08:55:06;;;;;;;;;;;11.70;99.90;;;;;;5119435;27;19985;-80
2023/10/31 08:57:33;;;;;;;;;;;11.70;99.90;;;;;;5120160;27;20469;-79
2023/10/31 09:00:00;;;;;;;;;;;11.60;99.90;;;;;;5123669;27;20401;-80
2023/10/31 09:02:26;;;;;;;;;;;11.70;99.90;;;;;;5121917;27;20109;-78
2023/10/31 09:04:53;;;;;;;;;;;11.70;99.90;;;;;;5123156;27;20227;-79
2023/10/31 09:07:20;;;;;;;;;;;11.70;99.90;;;;;;5125139;27;20448;-79
2023/10/31 09:09:47;;;;;;;;;;;11.70;99.90;;;;;;5124289;27;19975;-79
2023/10/31 09:12:15;;;;;;;;;;;11.70;99.90;;;;;;5123343;27;20002;-80
2023/10/31 09:14:42;;;;;;;;;;;11.70;99.90;;;;;;5126098;27;20431;-78
2023/10/31 09:17:08;;;;;;;;;;;11.80;99.90;;;;;;5121431;27;20720;-79
2023/10/31 09:19:35;;;;;;;;;;;11.70;99.90;;;;;;5128080;27;20223;-79
2023/10/31 09:22:01;;;;;;;;;;;11.80;99.90;;;;;;5126620;27;20162;-81
2023/10/31 09:24:28;;;;;;;;;;;11.80;99.90;;;;;;5125441;27;20856;-80
2023/10/31 09:26:54;;;;;;;;;;;11.90;99.90;;;;;;5124181;27;19978;-80
2023/10/31 09:29:22;;;;;;;;;;;11.80;99.90;;;;;;5122598;27;20423;-80
2023/10/31 09:31:49;;;;;;;;;;;11.80;99.90;;;;;;5116285;27;20499;-80
2023/10/31 09:34:17;;;;;;;;;;;11.80;99.90;;;;;;5114852;27;20061;-82
2023/10/31 09:36:44;;;;;;;;;;;11.90;99.90;;;;;;5115665;27;19979;-80
2023/10/31 09:39:11;;;;;;;;;;;11.90;99.90;;;;;;5119784;27;19998;-80
2023/10/31 09:41:37;;;;;;;;;;;11.90;99.90;;;;;;5118501;27;19978;-81
2023/10/31 09:44:04;;;;;;;;;;;11.90;99.90;;;;;;5116702;27;20020;-79
2023/10/31 09:46:32;;;;;;;;;;;12.00;99.90;;;;;;5112701;27;20001;-79
2023/10/31 09:48:59;;;;;;;;;;;12.00;99.90;;;;;;5118933;27;19981;-85
2023/10/31 09:51:26;;;;;;;;;;;12.00;99.90;;;;;;5114757;27;19982;-83
2023/10/31 09:53:54;;;;;;;;;;;12.00;99.90;;;;;;5113363;27;20001;-84
2023/10/31 09:56:22;;;;;;;;;;;12.00;99.90;;;;;;5098633;27;20420;-85
2023/10/31 09:58:48;;;;;;;;;;;12.00;99.90;;;;;;5115419;27;19990;-82
2023/10/31 10:01:15;;;;;;;;;;;12.00;99.90;;;;;;5116681;27;19994;-83
2023/10/31 10:03:43;;;;;;;;;;;12.10;99.90;;;;;;5120228;27;20049;-86
2023/10/31 10:06:10;;;;;;;;;;;12.00;99.90;;;;;;5115205;27;19986;-83
2023/10/31 10:08:37;;;;;;;;;;;12.10;99.90;;;;;;5113434;27;20077;-84
2023/10/31 10:11:04;;;;;;;;;;;12.10;99.90;;;;;;5117017;27;20303;-80
2023/10/31 10:13:31;;;;;;;;;;;12.10;99.90;;;;;;5122056;27;20001;-85
2023/10/31 10:15:57;;;;;;;;;;;12.10;99.90;;;;;;5116634;27;20001;-84
2023/10/31 10:18:27;;;;;;;;;;;12.10;99.90;;;;;;5119724;27;19998;-83
2023/10/31 10:20:59;;;;;;;;;;;12.10;99.90;;;;;;5119758;27;19978;-82
2023/10/31 10:23:27;;;;;;;;;;;12.20;99.90;;;;;;5122643;27;20002;-85
2023/10/31 10:25:54;;;;;;;;;;;12.20;99.90;;;;;;5121452;27;19984;-83
2023/10/31 10:28:20;;;;;;;;;;;12.20;99.90;;;;;;5119462;27;20077;-83
2023/10/31 10:30:48;;;;;;;;;;;12.20;99.90;;;;;;5119696;27;19990;-84
2023/10/31 10:33:15;;;;;;;;;;;12.20;99.90;;;;;;5119694;27;20022;-83
2023/10/31 10:35:42;;;;;;;;;;;12.30;99.90;;;;;;5121936;27;19986;-80
2023/10/31 10:38:11;;;;;;;;;;;12.30;99.90;;;;;;5117886;27;19990;-81
2023/10/31 10:40:38;;;;;;;;;;;12.30;99.90;;;;;;5114442;27;19975;-81
2023/10/31 10:43:08;;;;;;;;;;;12.30;99.90;;;;;;5116218;27;19998;-82
2023/10/31 10:45:35;;;;;;;;;;;12.40;99.90;;;;;;5116788;27;20530;-80
2023/10/31 10:48:05;;;;;;;;;;;12.40;99.90;;;;;;5114693;27;19982;-81
2023/10/31 10:50:35;;;;;;;;;;;12.40;99.90;;;;;;5115115;27;19974;-81
2023/10/31 10:53:09;;;;;;;;;;;12.40;99.90;;;;;;5117270;27;19995;-82
2023/10/31 10:55:40;;;;;;;;;;;12.40;99.90;;;;;;5117777;27;19974;-82
2023/10/31 10:58:08;;;;;;;;;;;12.40;99.90;;;;;;5119674;27;20344;-81
2023/10/31 11:00:35;;;;;;;;;;;12.40;99.90;;;;;;5116688;27;19991;-80
2023/10/31 11:03:02;;;;;;;;;;;12.40;99.90;;;;;;5123289;27;20010;-80
2023/10/31 11:05:29;;;;;;;;;;;12.50;99.90;;;;;;5121397;27;20595;-81
2023/10/31 11:07:58;;;;;;;;;;;12.50;99.90;;;;;;5118629;27;20565;-82
2023/10/31 11:10:25;;;;;;;;;;;12.50;99.90;;;;;;5116550;27;19978;-81
2023/10/31 11:12:53;;;;;;;;;;;12.50;99.90;;;;;;5117043;27;20042;-81
2023/10/31 11:15:20;;;;;;;;;;;12.40;99.90;;;;;;5108047;27;19986;-84
2023/10/31 11:17:47;;;;;;;;;;;12.50;99.90;;;;;;5117288;27;20027;-81
2023/10/31 11:20:15;;;;;;;;;;;12.50;99.90;;;;;;5112907;27;20376;-81
2023/10/31 11:22:43;;;;;;;;;;;12.50;99.90;;;;;;5113175;27;19994;-81
2023/10/31 11:25:11;;;;;;;;;;;12.50;99.90;;;;;;5117323;27;20504;-82
2023/10/31 11:27:37;;;;;;;;;;;12.50;99.90;;;;;;5116265;27;20001;-81
2023/10/31 11:30:08;;;;;;;;;;;12.50;99.90;;;;;;5120424;27;20015;-81
2023/10/31 11:32:35;;;;;;;;;;;12.50;99.90;;;;;;5117215;27;19994;-81
2023/10/31 11:35:02;;;;;;;;;;;12.50;99.90;;;;;;5111316;27;19979;-81
2023/10/31 11:37:34;;;;;;;;;;;12.50;99.90;;;;;;5111965;27;20022;-81
2023/10/31 11:40:16;;;;;;;;;;;12.50;99.90;;;;;;5110946;27;20372;-83
2023/10/31 11:42:43;;;;;;;;;;;12.50;99.90;;;;;;5112854;27;19991;-81
2023/10/31 11:45:12;;;;;;;;;;;12.50;99.90;;;;;;5113993;27;20046;-82
2023/10/31 11:47:56;;;;;;;;;;;12.50;99.90;;;;;;5110217;27;20443;-82
2023/10/31 11:50:24;;;;;;;;;;;12.50;99.90;;;;;;5113470;27;19979;-80
2023/10/31 11:53:01;;;;;;;;;;;12.60;99.90;;;;;;5109084;27;20013;-81
2023/10/31 11:55:27;;;;;;;;;;;12.60;99.90;;;;;;5118874;27;19981;-81
2023/10/31 11:57:54;;;;;;;;;;;12.60;99.90;;;;;;5115026;27;20013;-81
2023/10/31 12:00:23;;;;;;;;;;;12.60;99.90;;;;;;5118536;27;19974;-81
2023/10/31 12:02:59;;;;;;;;;;;12.60;99.90;;;;;;5112666;27;19998;-82
2023/10/31 12:05:26;;;;;;;;;;;12.70;99.90;;;;;;5119050;27;19981;-82
2023/10/31 12:07:52;;;;;;;;;;;12.70;99.90;;;;;;5113061;27;20495;-81
2023/10/31 12:10:23;;;;;;;;;;;12.70;99.90;;;;;;5114778;27;19982;-81
2023/10/31 12:12:49;;;;;;;;;;;12.70;99.90;;;;;;5122594;27;19990;-82
2023/10/31 12:15:16;;;;;;;;;;;12.80;99.90;;;;;;5127783;27;19978;-82
2023/10/31 12:17:44;;;;;;;;;;;12.80;99.90;;;;;;5116703;27;19978;-81
2023/10/31 12:20:11;;;;;;;;;;;12.80;99.90;;;;;;5121239;27;20227;-81
2023/10/31 12:22:39;;;;;;;;;;;12.80;99.90;;;;;;5119300;27;19991;-81
2023/10/31 12:25:07;;;;;;;;;;;12.80;99.90;;;;;;5117087;27;20312;-82
2023/10/31 12:27:44;;;;;;;;;;;12.90;99.90;;;;;;5116597;27;20471;-81
2023/10/31 12:30:10;;;;;;;;;;;12.90;99.90;;;;;;5114704;27;20028;-81
2023/10/31 12:32:37;;;;;;;;;;;12.80;99.90;;;;;;5118058;27;20494;-81
2023/10/31 12:35:06;;;;;;;;;;;12.90;99.90;;;;;;5116850;27;20019;-81
2023/10/31 12:37:33;;;;;;;;;;;12.90;99.90;;;;;;5117722;27;19982;-81
2023/10/31 12:40:03;;;;;;;;;;;12.80;99.90;;;;;;5119746;27;21231;-81
2023/10/31 12:42:32;;;;;;;;;;;12.90;99.90;;;;;;5119162;27;20008;-81
2023/10/31 12:44:59;;;;;;;;;;;12.90;99.90;;;;;;5123461;28;19974;-81
2023/10/31 12:47:25;;;;;;;;;;;12.90;99.90;;;;;;5123601;27;20016;-82
2023/10/31 12:50:07;;;;;;;;;;;12.90;99.90;;;;;;5118994;27;20545;-80
2023/10/31 12:52:48;;;;;;;;;;;12.90;99.90;;;;;;5119912;27;19992;-82
2023/10/31 12:55:15;;;;;;;;;;;12.90;99.90;;;;;;5119612;28;19985;-80
2023/10/31 12:57:43;;;;;;;;;;;12.90;99.90;;;;;;5119918;27;19975;-81
2023/10/31 13:00:12;;;;;;;;;;;12.90;99.90;;;;;;5117496;27;20088;-81
2023/10/31 13:02:39;;;;;;;;;;;12.90;99.90;;;;;;5118520;27;19994;-82
2023/10/31 13:05:09;;;;;;;;;;;12.90;99.90;;;;;;5116306;27;19985;-82
2023/10/31 13:07:36;;;;;;;;;;;12.90;99.90;;;;;;5120046;27;20014;-81
2023/10/31 13:10:04;;;;;;;;;;;12.80;99.90;;;;;;5117958;27;19987;-82
2023/10/31 13:12:31;;;;;;;;;;;12.90;99.90;;;;;;5125773;27;19990;-82
2023/10/31 13:14:58;;;;;;;;;;;12.90;99.90;;;;;;5122847;27;19982;-81
2023/10/31 13:17:24;;;;;;;;;;;12.90;99.90;;;;;;5114451;27;20023;-79
2023/10/31 13:19:51;;;;;;;;;;;13.00;99.90;;;;;;5120085;27;20002;-81
2023/10/31 13:22:17;;;;;;;;;;;13.10;99.90;;;;;;5123250;27;19994;-80
2023/10/31 13:24:45;;;;;;;;;;;13.10;99.90;;;;;;5122046;27;19975;-80
2023/10/31 13:27:16;;;;;;;;;;;13.20;99.90;;;;;;5122149;27;20441;-79
2023/10/31 13:29:42;;;;;;;;;;;13.30;99.90;;;;;;5119468;27;19979;-80
2023/10/31 13:32:09;;;;;;;;;;;13.40;99.90;;;;;;5123776;27;19998;-79
2023/10/31 13:34:36;;;;;;;;;;;13.40;99.90;;;;;;5123767;27;20019;-80
2023/10/31 13:37:03;;;;;;;;;;;13.50;99.90;;;;;;5118929;27;19985;-80
2023/10/31 13:39:30;;;;;;;;;;;13.60;99.90;;;;;;5120464;27;19990;-79
2023/10/31 13:41:56;;;;;;;;;;;13.60;99.90;;;;;;5126423;27;20010;-79
2023/10/31 13:44:24;;;;;;;;;;;13.70;99.90;;;;;;5117409;27;20561;-79
2023/10/31 13:46:51;;;;;;;;;;;13.70;99.90;;;;;;5120922;27;20043;-79
2023/10/31 13:49:17;;;;;;;;;;;13.80;99.90;;;;;;5121679;27;21263;-80
2023/10/31 13:51:44;;;;;;;;;;;13.80;99.90;;;;;;5123268;27;20463;-80
2023/10/31 13:54:11;;;;;;;;;;;13.90;99.90;;;;;;5121154;27;20038;-79
2023/10/31 13:56:37;;;;;;;;;;;13.90;99.90;;;;;;5122984;27;19982;-77
2023/10/31 13:59:04;;;;;;;;;;;13.90;99.90;;;;;;5120757;27;19990;-80
2023/10/31 14:01:32;;;;;;;;;;;13.90;99.90;;;;;;5117307;27;19990;-82
2023/10/31 14:03:59;;;;;;;;;;;13.90;99.90;;;;;;5118469;27;20695;-80
2023/10/31 14:06:30;;;;;;;;;;;14.00;99.90;;;;;;5123621;27;20281;-79
2023/10/31 14:08:57;;;;;;;;;;;14.00;99.90;;;;;;5117787;27;19979;-79
2023/10/31 14:11:23;;;;;;;;;;;14.00;99.90;;;;;;5115157;27;20049;-79
2023/10/31 14:13:52;;;;;;;;;;;14.00;99.90;;;;;;5116194;27;20467;-79
2023/10/31 14:16:18;;;;;;;;;;;14.00;99.90;;;;;;5117681;27;19990;-79
2023/10/31 14:18:47;;;;;;;;;;;14.00;99.90;;;;;;5115144;27;19994;-79
2023/10/31 14:21:14;;;;;;;;;;;14.00;99.90;;;;;;5124783;27;20003;-79